PORT of AMRUM

國家: Germany 國家: Germany (DE)
緯度/經度: 54.63226° / 8.392989° 顯示地圖 顯示地圖
當地時間:  UTC +2
UN/LOCODE: DEIAM
目前在港船舶: 2
預期抵達: 4

最近抵達或離開


船名
抵達 (UTC)
抵達 (LT)
離開 (UTC)
離開 (LT)
Vessel Type: 客輪  UTHLANDE 2014-09-23 09:44:00 2014-09-23 11:44:00 2014-09-23 10:13:00 2014-09-23 12:13:00
Vessel Type: 客輪  ADLER IV 2014-09-23 09:40:00 2014-09-23 11:40:00 2014-09-23 09:57:00 2014-09-23 11:57:00
Vessel Type: 高速船  ADLER EXPRESS 2014-09-23 08:52:00 2014-09-23 10:52:00 2014-09-23 09:05:00 2014-09-23 11:05:00
Vessel Type: 客輪  RUNGHOLT 2014-09-23 07:12:00 2014-09-23 09:12:00 2014-09-23 07:47:00 2014-09-23 09:47:00
Vessel Type: 拖船, 領港船  AMRUM BANK 2014-09-22 12:26:00 2014-09-22 14:26:00 2014-09-23 06:20:00 2014-09-23 08:20:00
Vessel Type: 客輪  UTHLANDE 2014-09-23 04:55:00 2014-09-23 06:55:00 2014-09-23 05:25:00 2014-09-23 07:25:00
Vessel Type: 拖船, 領港船  OLAND 2014-09-22 15:39:00 2014-09-22 17:39:00 2014-09-23 04:57:00 2014-09-23 06:57:00
Vessel Type: 客輪  SCHLESWIG HOLSTEIN 2014-09-22 17:54:00 2014-09-22 19:54:00 2014-09-23 04:08:00 2014-09-23 06:08:00
Vessel Type: 客輪  NORDFRIESLAND 2014-09-22 14:44:00 2014-09-22 16:44:00 2014-09-22 15:31:00 2014-09-22 17:31:00
Vessel Type: 客輪  ADLER IV 2014-09-22 15:12:00 2014-09-22 17:12:00 2014-09-22 15:30:00 2014-09-22 17:30:00

預期抵達


船名
Scheduled Arrival (UTC)
原定抵達時間(本地時間)
預計抵達時間 (UTC)
預計抵達時間(當地時間)
Vessel Type: 小艇與其他  NORMAND DRAUPNE 2014-09-23 01:00:00 2014-09-23 03:00:00
Vessel Type: 小艇與其他  SIEM MOXIE 2014-09-23 06:00:00 2014-09-23 08:00:00
Vessel Type: 貨輪  MPI DISCOVERY 2014-09-23 07:00:00 2014-09-23 09:00:00
Vessel Type: 貨輪  VTS 1 2014-09-24 08:00:00 2014-09-24 10:00:00

Wind Forecast


    
時間(UTC)
船速
Direction
Temperature
2014-09-23 09:00:00 8 knots 299° 14°C
2014-09-23 12:00:00 10 knots 273° 15°C
2014-09-23 15:00:00 13 knots 263° 15°C
2014-09-23 18:00:00 14 knots 257° 16°C
2014-09-23 21:00:00 14 knots 245° 15°C
2014-09-24 00:00:00 17 knots 240° 16°C
2014-09-24 03:00:00 17 knots 252° 16°C
2014-09-24 06:00:00 18 knots 234° 16°C
2014-09-24 09:00:00 24 knots 259° 15°C
2014-09-24 12:00:00 20 knots 295° 15°C
2014-09-24 15:00:00 19 knots 282° 15°C
2014-09-24 18:00:00 16 knots 292° 15°C
2014-09-24 21:00:00 24 knots 316° 15°C
2014-09-25 00:00:00 24 knots 307° 15°C
2014-09-25 03:00:00 22 knots 302° 14°C
2014-09-25 06:00:00 23 knots 313° 14°C
2014-09-25 09:00:00 18 knots 306° 15°C